createdAt,value
2019-02-24T00:02:11.478Z,13.35
2019-02-24T00:04:39.950Z,11.40
2019-02-24T00:07:08.383Z,15.70
2019-02-24T00:09:36.843Z,16.23
2019-02-24T00:12:05.288Z,14.55
2019-02-24T00:14:33.738Z,13.20
2019-02-24T00:17:02.176Z,13.00
2019-02-24T00:19:30.616Z,13.95
2019-02-24T00:21:59.067Z,13.08
2019-02-24T00:24:27.545Z,13.83
2019-02-24T00:26:56.079Z,14.13
2019-02-24T00:29:24.506Z,14.13
2019-02-24T00:31:52.959Z,13.38
2019-02-24T00:34:21.484Z,15.60
2019-02-24T00:36:50.019Z,13.50
2019-02-24T00:39:18.455Z,13.13
2019-02-24T00:41:46.990Z,13.55
2019-02-24T00:44:15.466Z,13.28
2019-02-24T00:46:43.903Z,13.95
2019-02-24T00:49:12.376Z,11.37
2019-02-24T00:51:41.017Z,12.68
2019-02-24T00:54:09.450Z,13.20
2019-02-24T00:56:37.890Z,15.32
2019-02-24T00:59:06.360Z,12.63
2019-02-24T01:01:34.804Z,14.80
2019-02-24T01:04:03.234Z,14.57
2019-02-24T01:06:31.687Z,14.18
2019-02-24T01:09:00.128Z,13.80
2019-02-24T01:11:28.585Z,13.38
2019-02-24T01:13:57.023Z,13.45
2019-02-24T01:16:25.589Z,12.47
2019-02-24T01:18:54.195Z,12.37
2019-02-24T01:21:22.682Z,14.75
2019-02-24T01:23:51.114Z,15.60
2019-02-24T01:26:19.551Z,14.30
2019-02-24T01:28:48.007Z,14.47
2019-02-24T01:31:16.452Z,13.20
2019-02-24T01:33:44.915Z,13.58
2019-02-24T01:36:13.354Z,12.73
2019-02-24T01:38:41.835Z,13.53
2019-02-24T01:41:10.278Z,16.00
2019-02-24T01:43:38.743Z,15.48
2019-02-24T01:46:26.606Z,14.47
2019-02-24T01:48:55.087Z,15.53
2019-02-24T01:51:23.537Z,18.32
2019-02-24T01:53:51.980Z,16.32
2019-02-24T01:56:20.504Z,18.05
2019-02-24T01:58:48.983Z,16.27
2019-02-24T02:01:17.442Z,19.90
2019-02-24T02:03:45.876Z,27.58
2019-02-24T02:06:14.375Z,24.25
2019-02-24T02:08:42.820Z,21.35
2019-02-24T02:11:11.287Z,19.35
2019-02-24T02:13:39.727Z,18.80
2019-02-24T02:16:08.170Z,19.48
2019-02-24T02:18:36.633Z,17.92
2019-02-24T02:21:05.088Z,13.80
2019-02-24T02:23:33.590Z,18.75
2019-02-24T02:26:02.048Z,16.50
2019-02-24T02:28:30.497Z,20.85
2019-02-24T02:30:58.980Z,26.97
2019-02-24T02:33:27.420Z,28.65
2019-02-24T02:35:55.874Z,27.75
2019-02-24T02:38:24.351Z,23.00
2019-02-24T02:40:52.886Z,23.45
2019-02-24T02:43:21.319Z,21.17
2019-02-24T02:45:49.806Z,18.87
2019-02-24T02:48:18.255Z,15.65
2019-02-24T02:50:47.173Z,16.75
2019-02-24T02:53:15.666Z,16.67
2019-02-24T02:55:44.112Z,22.40
2019-02-24T02:58:12.587Z,18.57
2019-02-24T03:00:41.031Z,18.48
2019-02-24T03:03:09.503Z,19.57
2019-02-24T03:05:39.579Z,15.58
2019-02-24T03:08:47.259Z,17.27
2019-02-24T03:11:16.893Z,19.27
2019-02-24T03:13:45.357Z,17.00
2019-02-24T03:16:14.839Z,18.02
2019-02-24T03:18:43.356Z,18.50
2019-02-24T03:21:11.799Z,17.80
2019-02-24T03:23:40.281Z,19.85
2019-02-24T03:26:08.716Z,16.70
2019-02-24T03:28:37.167Z,15.63
2019-02-24T03:31:05.616Z,16.10
2019-02-24T03:33:34.173Z,14.87
2019-02-24T03:36:02.603Z,18.40
2019-02-24T03:38:31.076Z,18.07
2019-02-24T03:40:59.595Z,19.48
2019-02-24T03:43:28.031Z,18.87
2019-02-24T03:45:56.510Z,20.70
2019-02-24T03:48:24.955Z,20.17
2019-02-24T03:50:53.395Z,17.65
2019-02-24T03:53:21.852Z,16.75
2019-02-24T03:55:50.301Z,21.80
2019-02-24T03:58:18.887Z,16.65
2019-02-24T04:00:47.325Z,15.72
2019-02-24T04:03:15.802Z,21.10
2019-02-24T04:05:44.296Z,18.17
2019-02-24T04:08:12.734Z,19.15
2019-02-24T04:10:41.200Z,18.48
2019-02-24T04:13:09.637Z,19.80
2019-02-24T04:15:38.165Z,18.90
2019-02-24T04:18:06.608Z,20.52
2019-02-24T04:20:54.415Z,20.82
2019-02-24T04:23:22.851Z,18.80
2019-02-24T04:25:51.300Z,21.42
2019-02-24T04:28:19.785Z,17.52
2019-02-24T04:30:48.534Z,17.55
2019-02-24T04:33:16.988Z,15.65
2019-02-24T04:35:45.433Z,19.55
2019-02-24T04:38:15.933Z,17.95
2019-02-24T04:40:44.080Z,20.70
2019-02-24T04:43:31.884Z,20.52
2019-02-24T04:46:00.323Z,21.82
2019-02-24T04:48:28.770Z,19.85
2019-02-24T04:50:57.221Z,23.95
2019-02-24T04:53:25.664Z,17.55
2019-02-24T04:55:54.166Z,20.77
2019-02-24T04:58:22.608Z,20.02
2019-02-24T05:00:51.114Z,21.27
2019-02-24T05:03:19.614Z,24.00
2019-02-24T05:05:48.059Z,20.50
2019-02-24T05:08:16.519Z,21.80
2019-02-24T05:10:44.967Z,19.48
2019-02-24T05:13:13.411Z,24.67
2019-02-24T05:15:41.872Z,20.68
2019-02-24T05:18:10.312Z,18.80
2019-02-24T05:20:38.774Z,21.00
2019-02-24T05:23:07.219Z,17.55
2019-02-24T05:25:35.762Z,18.92
2019-02-24T05:28:04.209Z,17.52
2019-02-24T05:30:32.692Z,18.87
2019-02-24T05:33:01.203Z,19.23
2019-02-24T05:35:49.015Z,19.15
2019-02-24T05:38:17.451Z,20.05
2019-02-24T05:40:45.941Z,18.98
2019-02-24T05:43:14.665Z,17.32
2019-02-24T05:45:43.120Z,19.07
2019-02-24T05:48:11.652Z,19.50
2019-02-24T05:50:40.087Z,19.62
2019-02-24T05:53:08.555Z,24.23
2019-02-24T05:55:36.998Z,22.00
2019-02-24T05:58:24.801Z,18.87
2019-02-24T06:00:53.246Z,19.98
2019-02-24T06:03:21.683Z,20.95
2019-02-24T06:05:50.151Z,19.92
2019-02-24T06:08:18.592Z,20.43
2019-02-24T06:10:47.047Z,22.85
2019-02-24T06:13:15.491Z,22.45
2019-02-24T06:15:43.954Z,20.10
2019-02-24T06:18:12.391Z,20.02
2019-02-24T06:20:40.856Z,18.30
2019-02-24T06:23:09.291Z,23.95
2019-02-24T06:25:37.743Z,23.20
2019-02-24T06:28:06.211Z,20.55
2019-02-24T06:30:34.696Z,19.40
2019-02-24T06:33:03.247Z,19.30
2019-02-24T06:35:31.691Z,19.92
2019-02-24T06:38:00.171Z,16.40
2019-02-24T06:40:28.614Z,20.88
2019-02-24T06:42:57.072Z,20.60
2019-02-24T06:45:25.513Z,21.20
2019-02-24T06:47:53.975Z,20.68
2019-02-24T06:50:22.423Z,23.27
2019-02-24T06:52:50.912Z,22.73
2019-02-24T06:55:19.358Z,22.48
2019-02-24T06:57:47.800Z,22.62
2019-02-24T07:00:16.274Z,26.55
2019-02-24T07:02:44.719Z,22.60
2019-02-24T07:05:13.172Z,24.75
2019-02-24T07:07:41.626Z,20.57
2019-02-24T07:10:10.087Z,22.20
2019-02-24T07:12:38.528Z,19.32
2019-02-24T07:15:08.937Z,22.30
2019-02-24T07:17:37.395Z,20.23
2019-02-24T07:20:07.815Z,24.72
2019-02-24T07:22:36.254Z,20.23
2019-02-24T07:25:06.034Z,24.63
2019-02-24T07:27:34.505Z,21.12
2019-02-24T07:30:02.960Z,23.12
2019-02-24T07:32:31.399Z,19.05
2019-02-24T07:34:59.869Z,21.35
2019-02-24T07:37:28.322Z,22.07
2019-02-24T07:39:56.843Z,21.87
2019-02-24T07:42:25.294Z,23.67
2019-02-24T07:44:53.760Z,22.85
2019-02-24T07:47:22.220Z,20.75
2019-02-24T07:49:50.665Z,20.30
2019-02-24T07:52:19.153Z,22.10
2019-02-24T07:54:47.616Z,23.52
2019-02-24T07:57:16.058Z,22.07
2019-02-24T07:59:44.538Z,19.67
2019-02-24T08:02:12.979Z,26.85
2019-02-24T08:04:41.423Z,26.68
2019-02-24T08:07:09.905Z,24.98
2019-02-24T08:09:38.339Z,25.75
2019-02-24T08:12:06.793Z,22.70
2019-02-24T08:14:35.267Z,24.50
2019-02-24T08:17:03.715Z,22.02
2019-02-24T08:19:32.165Z,21.70
2019-02-24T08:22:00.623Z,22.70
2019-02-24T08:24:29.249Z,23.15
2019-02-24T08:27:17.159Z,20.95
2019-02-24T08:29:45.980Z,20.35
2019-02-24T08:32:14.429Z,21.87
2019-02-24T08:34:42.969Z,22.82
2019-02-24T08:37:11.708Z,25.92
2019-02-24T08:39:40.233Z,20.60
2019-02-24T08:42:08.683Z,22.10
2019-02-24T08:44:37.171Z,20.85
2019-02-24T08:47:05.712Z,22.55
2019-02-24T08:49:34.175Z,18.05
2019-02-24T08:52:02.635Z,21.42
2019-02-24T08:54:31.084Z,20.05
2019-02-24T08:56:59.535Z,19.30
2019-02-24T08:59:27.979Z,20.77
2019-02-24T09:01:56.451Z,17.87
2019-02-24T09:04:24.887Z,19.77
2019-02-24T09:06:53.401Z,17.95
2019-02-24T09:09:21.886Z,17.82
2019-02-24T09:11:50.330Z,17.48
2019-02-24T09:14:18.808Z,16.90
2019-02-24T09:16:47.333Z,18.80
2019-02-24T09:19:15.778Z,18.82
2019-02-24T09:21:44.227Z,19.07
2019-02-24T09:24:12.705Z,17.75
2019-02-24T09:26:41.149Z,17.23
2019-02-24T09:29:09.596Z,17.35
2019-02-24T09:31:38.145Z,17.00
2019-02-24T09:34:06.586Z,16.77
2019-02-24T09:36:35.035Z,17.17
2019-02-24T09:39:04.274Z,16.37
2019-02-24T09:41:32.735Z,16.62
2019-02-24T09:44:01.182Z,16.03
2019-02-24T09:46:29.639Z,16.87
2019-02-24T09:48:58.086Z,14.83
2019-02-24T09:51:26.545Z,17.85
2019-02-24T09:53:54.990Z,16.10
2019-02-24T09:56:23.458Z,17.32
2019-02-24T09:58:51.899Z,17.85
2019-02-24T10:01:20.366Z,15.40
2019-02-24T10:03:48.847Z,17.40
2019-02-24T10:06:17.286Z,17.32
2019-02-24T10:08:45.759Z,15.85
2019-02-24T10:11:14.457Z,17.48
2019-02-24T10:13:42.919Z,16.75
2019-02-24T10:16:11.373Z,16.15
2019-02-24T10:18:39.838Z,15.85
2019-02-24T10:21:08.283Z,15.80
2019-02-24T10:23:36.741Z,16.65
2019-02-24T10:26:05.191Z,17.57
2019-02-24T10:28:33.656Z,13.95
2019-02-24T10:31:02.111Z,16.20
2019-02-24T10:33:30.634Z,16.75
2019-02-24T10:35:59.101Z,17.98
2019-02-24T10:38:27.629Z,15.43
2019-02-24T10:40:56.094Z,16.20
2019-02-24T10:43:24.540Z,14.95
2019-02-24T10:45:53.007Z,16.82
2019-02-24T10:48:21.459Z,14.98
2019-02-24T10:50:49.929Z,15.85
2019-02-24T10:53:18.380Z,15.50
2019-02-24T10:55:46.835Z,15.23
2019-02-24T10:58:15.286Z,18.15
2019-02-24T11:00:43.746Z,16.10
2019-02-24T11:03:12.207Z,17.32
2019-02-24T11:05:40.656Z,16.27
2019-02-24T11:08:09.126Z,16.27
2019-02-24T11:10:37.571Z,14.60
2019-02-24T11:13:06.037Z,15.98
2019-02-24T11:15:34.483Z,17.20
2019-02-24T11:18:02.949Z,16.25
2019-02-24T11:20:31.412Z,19.05
2019-02-24T11:22:59.907Z,17.07
2019-02-24T11:25:28.353Z,18.60
2019-02-24T11:27:56.864Z,17.60
2019-02-24T11:30:25.330Z,16.93
2019-02-24T11:32:53.775Z,16.45
2019-02-24T11:35:22.334Z,14.80
2019-02-24T11:37:50.830Z,16.97
2019-02-24T11:40:19.453Z,16.50
2019-02-24T11:42:47.911Z,15.70
2019-02-24T11:45:16.350Z,15.40
2019-02-24T11:47:44.810Z,14.38
2019-02-24T11:50:13.737Z,16.23
2019-02-24T11:52:42.202Z,15.28
2019-02-24T11:55:11.322Z,16.73
2019-02-24T11:57:39.783Z,18.07
2019-02-24T12:00:13.327Z,15.15
2019-02-24T12:02:42.074Z,16.15
2019-02-24T12:05:10.991Z,17.52
2019-02-24T12:07:39.487Z,15.90
2019-02-24T12:10:10.208Z,22.05
2019-02-24T12:12:38.646Z,15.40
2019-02-24T12:15:10.298Z,15.30
2019-02-24T12:17:38.782Z,15.15
2019-02-24T12:20:10.355Z,13.83
2019-02-24T12:22:38.845Z,13.78
2019-02-24T12:25:09.341Z,14.90
2019-02-24T12:27:37.879Z,13.58
2019-02-24T12:30:11.594Z,15.63
2019-02-24T12:32:40.050Z,12.43
2019-02-24T12:35:08.580Z,13.85
2019-02-24T12:37:37.048Z,14.20
2019-02-24T12:40:08.812Z,14.38
2019-02-24T12:42:37.267Z,15.30
2019-02-24T12:45:07.977Z,15.05
2019-02-24T12:47:36.442Z,15.65
2019-02-24T12:50:08.440Z,14.23
2019-02-24T12:52:36.902Z,14.45
2019-02-24T12:55:06.990Z,19.35
2019-02-24T12:57:35.442Z,14.25
2019-02-24T13:00:06.582Z,15.88
2019-02-24T13:02:35.025Z,14.33
2019-02-24T13:05:03.875Z,13.75
2019-02-24T13:07:32.323Z,16.55
2019-02-24T13:10:00.777Z,15.13
2019-02-24T13:12:29.232Z,16.15
2019-02-24T13:14:57.680Z,15.23
2019-02-24T13:17:26.134Z,14.43
2019-02-24T13:19:54.619Z,15.93
2019-02-24T13:22:23.123Z,16.23
2019-02-24T13:24:51.569Z,13.28
2019-02-24T13:27:20.010Z,15.40
2019-02-24T13:29:48.507Z,11.63
2019-02-24T13:32:16.972Z,21.30
2019-02-24T13:34:45.418Z,15.08
2019-02-24T13:37:13.900Z,12.73
2019-02-24T13:39:42.359Z,14.75
2019-02-24T13:42:10.795Z,17.42
2019-02-24T13:44:39.268Z,15.15
2019-02-24T13:47:07.715Z,13.08
2019-02-24T13:49:36.159Z,12.58
2019-02-24T13:52:04.634Z,12.63
2019-02-24T13:54:33.082Z,13.10
2019-02-24T13:57:01.550Z,15.78
2019-02-24T13:59:29.998Z,13.35
2019-02-24T14:01:58.443Z,15.95
2019-02-24T14:04:26.907Z,14.60
2019-02-24T14:06:55.367Z,16.60
2019-02-24T14:09:23.820Z,11.43
2019-02-24T14:11:52.302Z,12.73
2019-02-24T14:14:20.757Z,13.45
2019-02-24T14:16:49.221Z,12.25
2019-02-24T14:19:17.713Z,10.82
2019-02-24T14:21:46.231Z,11.68
2019-02-24T14:24:14.681Z,13.53
2019-02-24T14:26:43.134Z,11.57
2019-02-24T14:29:11.637Z,11.87
2019-02-24T14:31:40.198Z,13.72
2019-02-24T14:34:08.710Z,11.97
2019-02-24T14:36:37.154Z,13.15
2019-02-24T14:39:06.293Z,12.83
2019-02-24T14:41:34.735Z,12.40
2019-02-24T14:44:03.188Z,11.28
2019-02-24T14:46:31.642Z,12.33
2019-02-24T14:49:00.172Z,11.37
2019-02-24T14:51:28.662Z,13.45
2019-02-24T14:53:57.110Z,11.53
2019-02-24T14:56:25.592Z,12.63
2019-02-24T14:58:54.998Z,12.63
2019-02-24T15:01:23.452Z,12.93
2019-02-24T15:03:51.908Z,12.98
2019-02-24T15:06:20.351Z,12.90
2019-02-24T15:08:48.816Z,13.10
2019-02-24T15:11:17.262Z,12.40
2019-02-24T15:13:45.718Z,11.90
2019-02-24T15:16:14.173Z,11.25
2019-02-24T15:18:42.632Z,12.75
2019-02-24T15:21:11.072Z,13.80
2019-02-24T15:23:39.507Z,12.82
2019-02-24T15:26:07.978Z,13.03
2019-02-24T15:28:36.438Z,12.75
2019-02-24T15:31:04.973Z,13.08
2019-02-24T15:33:33.421Z,12.95
2019-02-24T15:36:01.888Z,13.78
2019-02-24T15:38:30.323Z,13.70
2019-02-24T15:40:58.787Z,14.00
2019-02-24T15:43:27.230Z,12.90
2019-02-24T15:45:55.694Z,13.68
2019-02-24T15:48:24.141Z,12.18
2019-02-24T15:50:52.608Z,12.47
2019-02-24T15:53:21.138Z,12.15
2019-02-24T15:55:49.584Z,13.22
2019-02-24T15:58:18.078Z,11.63
2019-02-24T16:00:46.566Z,12.15
2019-02-24T16:03:15.067Z,11.35
2019-02-24T16:05:43.535Z,10.90
2019-02-24T16:08:12.097Z,12.40
2019-02-24T16:10:40.539Z,14.07
2019-02-24T16:13:16.747Z,10.72
2019-02-24T16:15:39.232Z,13.78
2019-02-24T16:18:07.690Z,12.85
2019-02-24T16:20:37.350Z,13.30
2019-02-24T16:23:05.798Z,11.75
2019-02-24T16:25:34.282Z,13.45
2019-02-24T16:28:02.732Z,12.60
2019-02-24T16:30:31.179Z,13.70
2019-02-24T16:32:59.670Z,13.50
2019-02-24T16:35:28.110Z,14.35
2019-02-24T16:37:56.554Z,12.15
2019-02-24T16:40:28.700Z,12.95
2019-02-24T16:42:57.151Z,12.05
2019-02-24T16:45:25.614Z,12.63
2019-02-24T16:47:54.055Z,14.93
2019-02-24T16:50:25.709Z,13.60
2019-02-24T16:52:54.163Z,13.20
2019-02-24T16:55:22.639Z,13.15
2019-02-24T16:57:51.106Z,14.00
2019-02-24T17:00:21.203Z,17.73
2019-02-24T17:02:49.650Z,18.42
2019-02-24T17:05:18.289Z,18.17
2019-02-24T17:07:46.808Z,20.65
2019-02-24T17:10:17.783Z,21.12
2019-02-24T17:12:46.286Z,16.17
2019-02-24T17:15:14.742Z,17.62
2019-02-24T17:17:43.183Z,14.43
2019-02-24T17:20:22.920Z,13.68
2019-02-24T17:22:51.432Z,15.32
2019-02-24T17:25:19.880Z,14.20
2019-02-24T17:27:48.343Z,15.32
2019-02-24T17:30:17.085Z,15.98
2019-02-24T17:32:45.626Z,16.37
2019-02-24T17:35:14.514Z,15.35
2019-02-24T17:37:42.954Z,15.05
2019-02-24T17:40:19.662Z,17.62
2019-02-24T17:42:48.478Z,63.68
2019-02-24T17:45:16.954Z,115.82
2019-02-24T17:47:45.396Z,52.48
2019-02-24T17:50:15.394Z,42.53
2019-02-24T17:52:43.869Z,43.90
2019-02-24T17:55:14.070Z,43.35
2019-02-24T17:57:42.580Z,39.48
2019-02-24T18:00:17.307Z,31.33
2019-02-24T18:02:45.742Z,23.55
2019-02-24T18:05:14.203Z,26.95
2019-02-24T18:07:42.669Z,48.78
2019-02-24T18:10:11.258Z,52.25
2019-02-24T18:12:39.718Z,49.98
2019-02-24T18:15:11.222Z,34.23
2019-02-24T18:17:39.696Z,43.85
2019-02-24T18:20:16.899Z,39.38
2019-02-24T18:22:45.339Z,34.27
2019-02-24T18:25:13.803Z,36.20
2019-02-24T18:27:42.267Z,29.87
2019-02-24T18:30:28.169Z,34.75
2019-02-24T18:32:56.636Z,34.18
2019-02-24T18:35:25.075Z,29.57
2019-02-24T18:37:53.527Z,30.95
2019-02-24T18:40:22.055Z,29.63
2019-02-24T18:42:59.426Z,24.20
2019-02-24T18:45:20.758Z,25.47
2019-02-24T18:47:49.783Z,24.90
2019-02-24T18:50:19.290Z,28.67
2019-02-24T18:52:48.097Z,28.12
2019-02-24T18:55:16.601Z,41.13
2019-02-24T18:57:45.109Z,26.85
2019-02-24T19:00:18.533Z,27.20
2019-02-24T19:02:46.971Z,27.30
2019-02-24T19:05:15.477Z,26.70
2019-02-24T19:07:43.983Z,48.95
2019-02-24T19:10:17.265Z,33.05
2019-02-24T19:12:45.694Z,31.12
2019-02-24T19:15:19.190Z,29.87
2019-02-24T19:17:47.651Z,33.80
2019-02-24T19:20:36.975Z,34.10
2019-02-24T19:23:05.426Z,31.15
2019-02-24T19:25:33.873Z,32.15
2019-02-24T19:28:02.335Z,28.62
2019-02-24T19:30:30.843Z,32.25
2019-02-24T19:32:59.296Z,32.15
2019-02-24T19:35:27.757Z,27.42
2019-02-24T19:37:56.200Z,33.23
2019-02-24T19:40:24.661Z,28.02
2019-02-24T19:42:53.102Z,29.30
2019-02-24T19:45:25.950Z,30.00
2019-02-24T19:47:54.408Z,27.35
2019-02-24T19:50:22.907Z,31.52
2019-02-24T19:52:51.429Z,29.77
2019-02-24T19:55:19.934Z,29.05
2019-02-24T19:57:48.416Z,30.55
2019-02-24T20:00:22.235Z,24.50
2019-02-24T20:02:50.747Z,30.62
2019-02-24T20:05:20.248Z,30.08
2019-02-24T20:07:49.044Z,25.48
2019-02-24T20:10:23.160Z,28.15
2019-02-24T20:12:51.620Z,28.27
2019-02-24T20:15:20.096Z,30.75
2019-02-24T20:17:48.641Z,25.70
2019-02-24T20:20:17.838Z,30.70
2019-02-24T20:22:46.383Z,41.35
2019-02-24T20:25:17.620Z,30.72
2019-02-24T20:30:34.899Z,29.48
2019-02-24T20:33:03.366Z,27.87
2019-02-24T20:35:31.928Z,31.55
2019-02-24T20:38:00.368Z,34.83
2019-02-24T20:40:28.817Z,33.60
2019-02-24T20:42:57.351Z,34.90
2019-02-24T20:45:25.790Z,33.48
2019-02-24T20:47:54.240Z,34.27
2019-02-24T20:50:25.309Z,30.75
2019-02-24T20:52:53.762Z,30.70
2019-02-24T20:55:22.215Z,31.73
2019-02-24T20:57:50.669Z,32.83
2019-02-24T21:00:24.906Z,31.73
2019-02-24T21:02:53.425Z,35.58
2019-02-24T21:05:21.863Z,40.40
2019-02-24T21:07:50.303Z,34.92
2019-02-24T21:10:18.791Z,41.18
2019-02-24T21:12:47.222Z,38.05
2019-02-24T21:15:17.152Z,36.70
2019-02-24T21:17:45.579Z,35.30
2019-02-24T21:20:31.822Z,30.12
2019-02-24T21:23:00.263Z,34.90
2019-02-24T21:25:28.726Z,33.00
2019-02-24T21:27:57.185Z,36.08
2019-02-24T21:30:25.704Z,35.63
2019-02-24T21:32:54.161Z,38.17
2019-02-24T21:35:22.608Z,33.40
2019-02-24T21:37:51.085Z,41.25
2019-02-24T21:40:20.319Z,67.37
2019-02-24T21:42:48.839Z,44.85
2019-02-24T21:45:19.430Z,59.60
2019-02-24T21:47:47.915Z,53.58
2019-02-24T21:50:17.391Z,46.40
2019-02-24T21:52:45.836Z,46.50
2019-02-24T21:55:14.863Z,47.95
2019-02-24T21:57:43.371Z,46.08
2019-02-24T22:00:36.119Z,43.73
2019-02-24T22:03:04.838Z,47.15
2019-02-24T22:05:33.317Z,44.15
2019-02-24T22:08:01.763Z,44.63
2019-02-24T22:10:30.232Z,45.63
2019-02-24T22:12:59.417Z,40.58
2019-02-24T22:15:28.253Z,46.50
2019-02-24T22:17:56.784Z,36.98
2019-02-24T22:20:25.310Z,44.27
2019-02-24T22:22:53.766Z,40.38
2019-02-24T22:25:22.214Z,40.20
2019-02-24T22:27:50.695Z,36.00
2019-02-24T22:30:23.025Z,37.10
2019-02-24T22:32:51.480Z,35.80
2019-02-24T22:35:19.926Z,42.60
2019-02-24T22:37:48.375Z,35.30
2019-02-24T22:40:17.475Z,34.33
2019-02-24T22:42:46.602Z,37.03
2019-02-24T22:45:21.635Z,38.65
2019-02-24T22:47:50.139Z,38.15
2019-02-24T22:50:18.690Z,33.45
2019-02-24T22:52:47.480Z,33.13
2019-02-24T22:55:17.262Z,33.18
2019-02-24T22:57:45.995Z,28.50
2019-02-24T23:00:52.506Z,34.40
2019-02-24T23:03:26.631Z,32.53
2019-02-24T23:05:55.080Z,33.05
2019-02-24T23:08:23.535Z,34.27
2019-02-24T23:10:52.024Z,37.58
2019-02-24T23:13:20.599Z,40.10
2019-02-24T23:15:49.106Z,37.75
2019-02-24T23:18:17.578Z,31.48
2019-02-24T23:20:46.115Z,36.28
2019-02-24T23:23:14.566Z,36.28
2019-02-24T23:25:43.075Z,33.48
2019-02-24T23:28:11.551Z,37.33
2019-02-24T23:30:39.990Z,35.60
2019-02-24T23:33:08.430Z,35.92
2019-02-24T23:35:36.910Z,25.90
2019-02-24T23:38:05.354Z,34.13
2019-02-24T23:40:33.874Z,35.50
2019-02-24T23:43:02.340Z,31.45
2019-02-24T23:45:30.783Z,35.23
2019-02-24T23:47:59.240Z,33.67
2019-02-24T23:50:27.682Z,37.10
2019-02-24T23:52:56.144Z,31.55
2019-02-24T23:55:24.611Z,32.08
2019-02-24T23:57:53.067Z,35.20
